Time;durP1;ratioP1;P1;durP2;ratioP2;P2;SDS_P1;SDS_P2;PMS_P1;PMS_P2;Temp;Humidity;BMP_temperature;BMP_pressure;BME280_temperature;BME280_humidity;BME280_pressure;Samples;Min_cycle;Max_cycle;Signal;HPM_P1;HPM_P2
2023/05/06 00:01:41;;;;;;;10.45;4.75;;;;;;;5.31;100.00;101830.94;5011346;28;20194;-48
2023/05/06 00:04:07;;;;;;;13.73;5.00;;;;;;;5.28;100.00;101821.22;5011214;28;20216;-49
2023/05/06 00:06:33;;;;;;;12.80;4.35;;;;;;;5.32;100.00;101822.09;5010623;28;20248;-47
2023/05/06 00:08:58;;;;;;;12.80;4.55;;;;;;;5.28;100.00;101825.66;5010793;28;20218;-47
2023/05/06 00:11:25;;;;;;;12.85;4.43;;;;;;;5.30;100.00;101830.06;5010429;28;20243;-49
2023/05/06 00:13:50;;;;;;;17.60;4.35;;;;;;;5.32;100.00;101800.84;5015573;28;20659;-48
2023/05/06 00:16:16;;;;;;;13.80;4.57;;;;;;;5.31;100.00;101812.34;5019924;28;20267;-49
2023/05/06 00:18:41;;;;;;;11.50;4.43;;;;;;;5.28;100.00;101810.59;5019431;23;20293;-47
2023/05/06 00:21:07;;;;;;;12.90;4.43;;;;;;;5.34;100.00;101815.91;5071235;28;20247;-46
2023/05/06 00:23:32;;;;;;;13.05;4.47;;;;;;;5.33;100.00;101818.56;5053513;28;20167;-46
2023/05/06 00:25:58;;;;;;;15.35;4.60;;;;;;;5.33;100.00;101830.06;5052863;28;20199;-50
2023/05/06 00:28:23;;;;;;;14.63;4.63;;;;;;;5.30;100.00;101832.72;5053236;28;20755;-45
2023/05/06 00:30:49;;;;;;;10.07;4.47;;;;;;;5.39;100.00;101826.53;5053155;28;20250;-48
2023/05/06 00:33:14;;;;;;;12.77;4.50;;;;;;;5.36;100.00;101827.41;5052718;28;20675;-47
2023/05/06 00:35:40;;;;;;;16.80;4.57;;;;;;;5.36;100.00;101822.09;5053073;28;20180;-46
2023/05/06 00:38:08;;;;;;;12.40;4.32;;;;;;;5.32;100.00;101828.31;5034751;28;20246;-47
2023/05/06 00:40:34;;;;;;;9.65;4.32;;;;;;;5.40;100.00;101816.78;5052887;28;20175;-45
2023/05/06 00:42:59;;;;;;;11.60;4.35;;;;;;;5.33;100.00;101824.75;5051972;28;20207;-44
2023/05/06 00:45:25;;;;;;;15.60;4.93;;;;;;;5.37;100.00;101812.34;5043100;28;20172;-48
2023/05/06 00:47:51;;;;;;;12.45;4.63;;;;;;;5.40;100.00;101820.34;5051758;28;20171;-50
2023/05/06 00:50:18;;;;;;;15.38;4.97;;;;;;;5.42;100.00;101809.69;5051350;28;20164;-46
2023/05/06 00:52:44;;;;;;;8.18;4.78;;;;;;;5.38;100.00;101822.09;5052808;28;20270;-46
2023/05/06 00:55:10;;;;;;;11.93;4.80;;;;;;;5.45;100.00;101812.34;5052841;28;20175;-46
2023/05/06 00:57:37;;;;;;;17.55;5.15;;;;;;;5.42;100.00;101815.88;5052174;28;20182;-47
2023/05/06 01:00:05;;;;;;;14.07;4.85;;;;;;;5.41;100.00;101824.75;5049625;28;20552;-47
2023/05/06 01:02:31;;;;;;;12.20;4.97;;;;;;;5.41;100.00;101823.88;5050015;28;20203;-50
2023/05/06 01:04:58;;;;;;;12.77;5.20;;;;;;;5.40;100.00;101815.03;5050045;28;20557;-52
2023/05/06 01:07:27;;;;;;;14.25;5.15;;;;;;;5.41;100.00;101822.09;5048622;28;20198;-49
2023/05/06 01:10:34;;;;;;;16.55;5.07;;;;;;;5.39;100.00;101818.56;5050658;28;20181;-51
2023/05/06 01:13:11;;;;;;;13.88;4.95;;;;;;;5.45;100.00;101802.59;5049511;28;20221;-49
2023/05/06 01:15:53;;;;;;;10.90;4.53;;;;;;;5.41;100.00;101816.78;5049474;28;20541;-50
2023/05/06 01:18:21;;;;;;;13.18;5.20;;;;;;;5.42;100.00;101809.69;5050418;28;20292;-49
2023/05/06 01:20:49;;;;;;;13.23;5.20;;;;;;;5.48;100.00;101802.59;5069585;28;20276;-49
2023/05/06 01:23:16;;;;;;;13.45;5.07;;;;;;;5.40;100.00;101808.81;5052187;28;20194;-50
2023/05/06 01:25:41;;;;;;;13.52;5.32;;;;;;;5.45;100.00;101813.22;5052458;28;20191;-50
2023/05/06 01:28:10;;;;;;;13.10;5.10;;;;;;;5.37;100.00;101820.31;5052339;28;20557;-53
2023/05/06 01:31:04;;;;;;;13.45;4.97;;;;;;;5.42;100.00;101812.34;5068537;28;20674;-51
2023/05/06 01:33:48;;;;;;;12.10;5.80;;;;;;;5.42;100.00;101817.66;5061707;28;20206;-50
2023/05/06 01:36:31;;;;;;;14.63;5.25;;;;;;;5.42;100.00;101810.56;5069233;28;20265;-52
2023/05/06 01:39:02;;;;;;;12.25;5.55;;;;;;;5.43;100.00;101801.72;5070311;28;20201;-51
2023/05/06 01:41:32;;;;;;;16.80;5.38;;;;;;;5.44;100.00;101800.81;5066996;28;20198;-52
2023/05/06 01:43:59;;;;;;;13.63;5.45;;;;;;;5.49;100.00;101796.41;5052127;28;20182;-50
2023/05/06 01:46:25;;;;;;;17.98;5.80;;;;;;;5.42;100.00;101810.56;5051596;28;20186;-52
2023/05/06 01:48:56;;;;;;;12.90;5.85;;;;;;;5.45;100.00;101817.66;5069646;28;20174;-50
2023/05/06 01:51:22;;;;;;;16.33;5.68;;;;;;;5.43;100.00;101814.13;5068117;28;20714;-51
2023/05/06 01:53:48;;;;;;;12.15;6.15;;;;;;;5.40;100.00;101819.44;5070545;28;20292;-50
2023/05/06 01:56:15;;;;;;;14.23;5.90;;;;;;;5.44;100.00;101810.56;5062204;28;20182;-48
2023/05/06 01:58:42;;;;;;;9.85;5.38;;;;;;;5.45;100.00;101820.34;5068328;28;20256;-46
2023/05/06 02:01:07;;;;;;;16.05;6.10;;;;;;;5.46;100.00;101816.78;5070085;28;20183;-46
2023/05/06 02:03:33;;;;;;;14.25;6.03;;;;;;;5.47;100.00;101821.22;5066979;28;20222;-47
2023/05/06 02:05:58;;;;;;;14.25;5.50;;;;;;;5.51;100.00;101830.94;5070042;28;20198;-45
2023/05/06 02:08:25;;;;;;;13.98;5.35;;;;;;;5.46;100.00;101830.94;5051974;28;20196;-48
2023/05/06 02:10:51;;;;;;;15.32;5.75;;;;;;;5.49;100.00;101828.28;5052499;28;20254;-48
2023/05/06 02:13:18;;;;;;;11.68;5.45;;;;;;;5.46;100.00;101830.06;5051928;28;20605;-45
2023/05/06 02:15:44;;;;;;;15.30;5.40;;;;;;;5.51;100.00;101822.94;5051297;28;20202;-45
2023/05/06 02:18:14;;;;;;;11.40;5.78;;;;;;;5.50;100.00;101826.50;5052031;28;20182;-45
2023/05/06 02:20:40;;;;;;;12.32;6.13;;;;;;;5.50;100.00;101822.06;5051967;28;20352;-48
2023/05/06 02:23:06;;;;;;;15.55;5.38;;;;;;;5.47;100.00;101826.53;5052200;28;20272;-49
2023/05/06 02:25:32;;;;;;;10.18;4.90;;;;;;;5.45;100.00;101826.53;5069916;28;20174;-47
2023/05/06 02:27:57;;;;;;;11.00;5.30;;;;;;;5.45;100.00;101831.84;5050890;28;20186;-50
2023/05/06 02:30:23;;;;;;;15.07;5.60;;;;;;;5.47;100.00;101823.88;5069228;28;20248;-47
2023/05/06 02:32:48;;;;;;;11.10;5.55;;;;;;;5.47;100.00;101827.41;5067403;28;20578;-47
2023/05/06 02:35:14;;;;;;;13.70;5.53;;;;;;;5.47;100.00;101826.53;5069127;28;20224;-49
2023/05/06 02:37:39;;;;;;;16.08;5.75;;;;;;;5.48;100.00;101841.56;5068614;28;20572;-52
2023/05/06 02:40:05;;;;;;;21.35;5.68;;;;;;;5.47;100.00;101830.06;5050644;28;20675;-48
2023/05/06 02:42:33;;;;;;;13.32;4.95;;;;;;;5.45;100.00;101837.16;5067288;28;20207;-50
2023/05/06 02:44:58;;;;;;;16.15;5.45;;;;;;;5.47;100.00;101824.75;5068768;28;20228;-49
2023/05/06 02:47:24;;;;;;;18.10;5.53;;;;;;;5.42;100.00;101818.53;5064666;28;20194;-49
2023/05/06 02:49:50;;;;;;;13.55;5.07;;;;;;;5.45;100.00;101823.00;5067285;28;20183;-50
2023/05/06 02:52:15;;;;;;;16.52;6.00;;;;;;;5.49;100.00;101830.06;5068021;28;20568;-49
2023/05/06 02:54:41;;;;;;;14.52;6.00;;;;;;;5.37;100.00;101825.63;5049877;28;20213;-49
2023/05/06 02:57:06;;;;;;;12.48;5.47;;;;;;;5.48;100.00;101823.84;5049034;28;20242;-50
2023/05/06 02:59:34;;;;;;;16.38;5.18;;;;;;;5.47;100.00;101821.22;5050366;28;20197;-50
2023/05/06 03:01:59;;;;;;;14.80;6.32;;;;;;;5.45;100.00;101823.88;5067313;28;20198;-50
2023/05/06 03:04:25;;;;;;;18.02;5.50;;;;;;;5.46;100.00;101817.66;5065119;28;20225;-48
2023/05/06 03:06:50;;;;;;;12.25;5.55;;;;;;;5.39;100.00;101828.31;5049596;28;20186;-46
2023/05/06 03:09:16;;;;;;;18.15;5.43;;;;;;;5.38;100.00;101822.09;5068820;28;20174;-46
2023/05/06 03:11:42;;;;;;;10.73;5.65;;;;;;;5.36;100.00;101835.38;5050699;28;20277;-47
2023/05/06 03:14:07;;;;;;;13.60;5.13;;;;;;;5.44;100.00;101822.06;5050858;28;20236;-47
2023/05/06 03:16:34;;;;;;;13.00;6.07;;;;;;;5.40;100.00;101819.44;5050247;28;20186;-46
2023/05/06 03:19:02;;;;;;;14.32;5.90;;;;;;;5.40;100.00;101828.31;5049394;28;20567;-46
2023/05/06 03:21:28;;;;;;;14.90;6.35;;;;;;;5.40;100.00;101820.34;5048262;28;20692;-46
2023/05/06 03:23:54;;;;;;;16.65;6.40;;;;;;;5.39;100.00;101818.56;5050521;28;20170;-46
2023/05/06 03:26:22;;;;;;;15.32;6.03;;;;;;;5.39;100.00;101817.66;5047740;28;20201;-45
2023/05/06 03:28:48;;;;;;;14.32;5.53;;;;;;;5.39;100.00;101826.53;5068565;28;20186;-46
2023/05/06 03:31:16;;;;;;;13.77;6.43;;;;;;;5.42;100.00;101825.63;5049880;28;20244;-48
2023/05/06 03:33:42;;;;;;;11.55;5.68;;;;;;;5.40;100.00;101806.13;5050582;28;20272;-44
2023/05/06 03:36:11;;;;;;;17.20;5.88;;;;;;;5.46;100.00;101812.34;5049747;28;20217;-46
2023/05/06 03:38:40;;;;;;;16.63;5.85;;;;;;;5.35;100.00;101815.00;5034463;28;20640;-48
2023/05/06 03:41:07;;;;;;;12.45;5.32;;;;;;;5.33;100.00;101810.56;5047899;28;20637;-48
2023/05/06 03:43:33;;;;;;;12.05;5.80;;;;;;;5.40;100.00;101816.78;5050710;28;20225;-44
2023/05/06 03:46:01;;;;;;;17.45;6.00;;;;;;;5.41;100.00;101813.25;5050825;28;20232;-47
2023/05/06 03:48:27;;;;;;;15.73;6.05;;;;;;;5.36;100.00;101821.22;5047768;28;20221;-45
2023/05/06 03:50:54;;;;;;;12.65;5.20;;;;;;;5.34;100.00;101815.91;5050575;28;20291;-46
2023/05/06 03:53:20;;;;;;;12.27;6.03;;;;;;;5.34;100.00;101799.97;5067730;28;20281;-46
2023/05/06 03:55:48;;;;;;;11.57;5.20;;;;;;;5.37;100.00;101796.41;5049104;28;20198;-46
2023/05/06 03:58:13;;;;;;;14.10;6.13;;;;;;;5.39;100.00;101802.59;5054039;28;20213;-45
2023/05/06 04:00:41;;;;;;;15.20;5.45;;;;;;;5.37;100.00;101802.59;5053969;28;20217;-46
2023/05/06 04:03:07;;;;;;;19.98;6.45;;;;;;;5.37;100.00;101810.56;5053895;28;20305;-45
2023/05/06 04:05:41;;;;;;;12.15;5.35;;;;;;;5.39;100.00;101801.72;5053343;28;20170;-45
2023/05/06 04:08:08;;;;;;;10.23;5.80;;;;;;;5.44;100.00;101813.22;5052155;28;20232;-45
2023/05/06 04:10:38;;;;;;;12.88;5.57;;;;;;;5.36;100.00;101795.53;5072180;28;20616;-45
2023/05/06 04:13:07;;;;;;;16.67;6.30;;;;;;;5.38;100.00;101806.16;5062395;28;20617;-46
2023/05/06 04:15:40;;;;;;;13.68;5.72;;;;;;;5.34;100.00;101805.28;5053488;28;20481;-45
2023/05/06 04:18:08;;;;;;;12.00;6.55;;;;;;;5.34;100.00;101805.28;5053069;28;20572;-46
2023/05/06 04:20:37;;;;;;;9.93;5.10;;;;;;;5.34;100.00;101805.28;5071619;28;20205;-46
2023/05/06 04:23:03;;;;;;;20.38;6.28;;;;;;;5.39;100.00;101807.03;5051699;28;20194;-48
2023/05/06 04:25:29;;;;;;;12.75;5.65;;;;;;;5.37;100.00;101810.56;5071553;28;20244;-50
2023/05/06 04:27:54;;;;;;;12.57;5.10;;;;;;;5.41;100.00;101807.94;5070886;28;20178;-49
2023/05/06 04:30:21;;;;;;;11.95;5.60;;;;;;;5.40;100.00;101808.81;5053183;28;20213;-47
2023/05/06 04:32:48;;;;;;;8.20;5.40;;;;;;;5.33;100.00;101803.47;5052968;28;20230;-50
2023/05/06 04:35:15;;;;;;;14.90;5.35;;;;;;;5.36;100.00;101805.28;5053378;28;20206;-48
2023/05/06 04:37:42;;;;;;;10.38;5.45;;;;;;;5.33;100.00;101797.28;5052766;28;20553;-48
2023/05/06 04:40:13;;;;;;;9.13;5.22;;;;;;;5.33;100.00;101803.47;5053036;28;20202;-48
2023/05/06 04:42:41;;;;;;;15.30;6.28;;;;;;;5.33;100.00;101802.59;5052690;28;20190;-49
2023/05/06 04:45:14;;;;;;;14.05;5.20;;;;;;;5.36;100.00;101803.50;5052807;28;20186;-50
2023/05/06 04:47:43;;;;;;;14.00;5.13;;;;;;;5.37;100.00;101802.59;5070021;28;20195;-49
2023/05/06 04:50:09;;;;;;;12.48;5.68;;;;;;;5.41;100.00;101802.63;5070886;28;20265;-49
2023/05/06 04:52:35;;;;;;;12.82;5.35;;;;;;;5.36;100.00;101805.28;5070554;28;20708;-49
2023/05/06 04:55:01;;;;;;;9.88;5.40;;;;;;;5.36;100.00;101800.84;5050784;28;20578;-51
2023/05/06 04:57:30;;;;;;;15.75;5.75;;;;;;;5.39;100.00;101809.69;5052999;28;20197;-49
2023/05/06 04:59:56;;;;;;;11.52;5.43;;;;;;;5.37;100.00;101810.56;5052597;28;20186;-50
2023/05/06 05:02:21;;;;;;;10.32;5.28;;;;;;;5.40;100.00;101800.81;5070931;28;20688;-52
2023/05/06 05:04:48;;;;;;;11.48;5.80;;;;;;;5.41;100.00;101821.22;5070820;28;20594;-50
2023/05/06 05:07:14;;;;;;;8.95;5.75;;;;;;;5.41;100.00;101827.41;5052205;28;20175;-50
2023/05/06 05:09:40;;;;;;;11.38;5.55;;;;;;;5.45;100.00;101830.97;5070044;28;20186;-51
2023/05/06 05:12:06;;;;;;;11.50;6.07;;;;;;;5.37;100.00;101830.94;5052231;28;20941;-51
2023/05/06 05:14:35;;;;;;;11.35;5.95;;;;;;;5.44;100.00;101831.84;5052684;28;20700;-52
2023/05/06 05:17:01;;;;;;;14.07;6.45;;;;;;;5.39;100.00;101836.28;5035843;28;20273;-51
2023/05/06 05:19:27;;;;;;;12.07;6.20;;;;;;;5.44;100.00;101838.03;5042969;28;20198;-50
2023/05/06 05:21:53;;;;;;;12.10;5.97;;;;;;;5.43;100.00;101828.28;5052949;28;20546;-49
2023/05/06 05:24:21;;;;;;;9.07;5.90;;;;;;;5.44;100.00;101827.38;5052052;28;20171;-50
2023/05/06 05:26:46;;;;;;;12.18;6.15;;;;;;;5.49;100.00;101843.38;5035725;28;20174;-50
2023/05/06 05:29:14;;;;;;;12.38;6.10;;;;;;;5.41;100.00;101846.00;5052632;28;20454;-50
2023/05/06 05:31:40;;;;;;;9.82;5.53;;;;;;;5.54;100.00;101846.91;5052173;28;20290;-49
2023/05/06 05:34:06;;;;;;;13.57;6.22;;;;;;;5.45;100.00;101838.94;5052444;28;20249;-52
2023/05/06 05:36:32;;;;;;;13.43;5.88;;;;;;;5.52;100.00;101853.97;5069955;28;20644;-51
2023/05/06 05:39:00;;;;;;;12.48;6.65;;;;;;;5.47;100.00;101839.81;5052002;28;20322;-51
2023/05/06 05:41:29;;;;;;;12.55;6.05;;;;;;;5.47;100.00;101850.44;5050860;28;20217;-50
2023/05/06 05:43:55;;;;;;;14.48;6.78;;;;;;;5.53;100.00;101861.06;5034843;28;20210;-51
2023/05/06 05:46:20;;;;;;;15.63;6.60;;;;;;;5.45;100.00;101845.13;5051764;28;20698;-52
2023/05/06 05:48:49;;;;;;;9.98;6.50;;;;;;;5.61;100.00;101856.63;5051764;28;20286;-48
2023/05/06 05:51:16;;;;;;;15.65;6.95;;;;;;;5.48;100.00;101857.53;5051860;28;20207;-51
2023/05/06 05:53:43;;;;;;;11.70;6.15;;;;;;;5.59;100.00;101858.41;5050358;28;20247;-53
2023/05/06 05:56:08;;;;;;;10.38;5.88;;;;;;;5.51;100.00;101850.44;5051215;28;20222;-51
2023/05/06 05:58:35;;;;;;;12.25;6.57;;;;;;;5.46;100.00;101854.84;5051657;28;20770;-50
2023/05/06 06:01:02;;;;;;;10.60;6.15;;;;;;;5.51;100.00;101857.50;5069836;28;20518;-52
2023/05/06 06:03:28;;;;;;;11.32;6.85;;;;;;;5.51;100.00;101854.84;5051557;28;20201;-51
2023/05/06 06:05:54;;;;;;;13.77;7.18;;;;;;;5.47;100.00;101855.78;5069776;28;20546;-51
2023/05/06 06:08:20;;;;;;;12.60;7.28;;;;;;;5.47;100.00;101875.25;5069412;28;20545;-50
2023/05/06 06:10:48;;;;;;;11.27;7.18;;;;;;;5.43;100.00;101848.69;5050405;28;20183;-50
2023/05/06 06:13:18;;;;;;;12.73;6.78;;;;;;;5.55;100.00;101856.63;5051548;28;20206;-51
2023/05/06 06:15:45;;;;;;;12.85;7.10;;;;;;;5.49;100.00;101854.00;5069464;28;20202;-50
2023/05/06 06:18:10;;;;;;;12.32;7.10;;;;;;;5.53;100.00;101858.41;5069631;28;20183;-52
2023/05/06 06:20:37;;;;;;;13.88;7.32;;;;;;;5.48;100.00;101854.88;5069294;28;20193;-51
2023/05/06 06:23:03;;;;;;;9.20;5.65;;;;;;;5.58;100.00;101861.97;5069404;28;20199;-50
2023/05/06 06:25:28;;;;;;;12.32;6.57;;;;;;;5.53;100.00;101867.28;5051686;28;20660;-51
2023/05/06 06:30:39;;;;;;;12.38;5.93;;;;;;;5.64;100.00;101866.34;4980081;23;20700;-47
2023/05/06 06:33:05;;;;;;;10.68;5.72;;;;;;;5.68;100.00;101863.69;4980174;28;20201;-46
2023/05/06 06:35:30;;;;;;;12.27;6.10;;;;;;;5.57;100.00;101873.47;4956309;28;20232;-47
2023/05/06 06:37:56;;;;;;;9.55;6.20;;;;;;;5.61;100.00;101875.22;4983476;28;20533;-48
2023/05/06 06:40:21;;;;;;;14.23;6.15;;;;;;;5.63;100.00;101870.81;4983622;28;20178;-46
2023/05/06 06:42:47;;;;;;;12.95;5.70;;;;;;;5.65;100.00;101877.00;4981513;28;20201;-46
2023/05/06 06:45:46;;;;;;;11.77;6.32;;;;;;;5.68;100.00;101873.44;4952729;28;20224;-47
2023/05/06 06:48:11;;;;;;;10.88;6.20;;;;;;;5.68;100.00;101879.66;4954011;28;20219;-47
2023/05/06 06:50:37;;;;;;;9.95;5.90;;;;;;;5.67;100.00;101872.56;4981897;28;20216;-47
2023/05/06 06:53:02;;;;;;;9.75;5.60;;;;;;;5.71;100.00;101878.78;4983232;28;20212;-47
2023/05/06 06:55:28;;;;;;;12.43;5.82;;;;;;;5.69;100.00;101884.09;4973343;28;20752;-45
2023/05/06 06:57:53;;;;;;;11.38;5.97;;;;;;;5.68;100.00;101882.31;4980878;28;20180;-46
2023/05/06 07:00:19;;;;;;;9.20;5.70;;;;;;;5.66;100.00;101881.41;4971084;28;20223;-47
2023/05/06 07:02:46;;;;;;;10.00;5.93;;;;;;;5.71;100.00;101876.13;4969933;28;20209;-47
2023/05/06 07:05:13;;;;;;;8.30;5.40;;;;;;;5.73;100.00;101882.31;4978741;28;20224;-46
2023/05/06 07:07:44;;;;;;;12.68;5.75;;;;;;;5.73;100.00;101874.34;4947723;28;20572;-46
2023/05/06 07:10:10;;;;;;;12.65;6.38;;;;;;;5.72;100.00;101881.41;4982276;28;20200;-47
2023/05/06 07:12:35;;;;;;;9.63;5.88;;;;;;;5.77;100.00;101890.28;4974986;28;20264;-46
2023/05/06 07:15:05;;;;;;;10.82;6.22;;;;;;;5.80;100.00;101884.09;4960600;28;20228;-49
2023/05/06 07:17:31;;;;;;;9.43;5.97;;;;;;;5.72;100.00;101878.75;4978715;28;20195;-47
2023/05/06 07:19:57;;;;;;;11.05;5.88;;;;;;;5.70;100.00;101883.19;4980199;28;20188;-45
2023/05/06 07:22:22;;;;;;;12.07;6.10;;;;;;;5.78;100.00;101875.22;4980365;28;20205;-44
2023/05/06 07:24:48;;;;;;;9.20;6.10;;;;;;;5.69;100.00;101883.22;4972698;28;20205;-48
2023/05/06 07:27:13;;;;;;;17.25;6.45;;;;;;;5.75;100.00;101876.13;4980935;28;20188;-46
2023/05/06 07:29:39;;;;;;;13.73;6.25;;;;;;;5.78;100.00;101881.41;4983208;28;20277;-47
2023/05/06 07:32:04;;;;;;;13.38;6.07;;;;;;;5.76;100.00;101888.50;4969304;28;20215;-45
2023/05/06 07:34:31;;;;;;;12.25;6.55;;;;;;;5.81;100.00;101885.84;4975319;28;20206;-45
2023/05/06 07:36:57;;;;;;;9.90;6.38;;;;;;;5.85;100.00;101897.38;4979002;28;20211;-46
2023/05/06 07:39:22;;;;;;;7.13;6.03;;;;;;;5.84;100.00;101895.59;4975473;28;20265;-45
2023/05/06 07:41:48;;;;;;;13.18;6.38;;;;;;;5.80;100.00;101894.72;4963835;28;20688;-46
2023/05/06 07:44:14;;;;;;;10.82;6.15;;;;;;;5.72;100.00;101892.06;4979820;28;20185;-48
2023/05/06 07:46:39;;;;;;;13.73;6.95;;;;;;;5.86;100.00;101907.09;4982568;28;20543;-45
2023/05/06 07:49:04;;;;;;;8.13;6.25;;;;;;;5.78;100.00;101899.16;4981978;28;20671;-48
2023/05/06 07:51:30;;;;;;;11.75;6.78;;;;;;;5.83;100.00;101909.78;4977657;28;20622;-48
2023/05/06 07:53:56;;;;;;;11.27;6.53;;;;;;;5.97;100.00;101910.69;4965487;28;20632;-46
2023/05/06 07:56:21;;;;;;;13.10;6.85;;;;;;;5.93;100.00;101908.88;4974606;28;20221;-47
2023/05/06 07:58:48;;;;;;;9.23;6.00;;;;;;;5.81;100.00;101911.56;4979375;28;20358;-46
2023/05/06 08:01:14;;;;;;;11.68;5.90;;;;;;;5.88;100.00;101918.63;4981874;28;20264;-46
2023/05/06 08:03:40;;;;;;;9.57;6.00;;;;;;;5.77;100.00;101922.22;4979283;28;20194;-46
2023/05/06 08:06:06;;;;;;;9.50;6.55;;;;;;;5.89;100.00;101909.78;4973838;28;20260;-47
2023/05/06 08:08:31;;;;;;;8.73;6.05;;;;;;;5.87;100.00;101915.09;4971082;28;20194;-46
2023/05/06 08:10:57;;;;;;;7.95;6.05;;;;;;;5.88;100.00;101914.22;4977875;28;20601;-46
2023/05/06 08:13:24;;;;;;;7.63;6.43;;;;;;;5.95;100.00;101920.44;4973300;28;20186;-45
2023/05/06 08:15:50;;;;;;;12.68;6.80;;;;;;;5.90;100.00;101920.44;4977144;28;20416;-47
2023/05/06 08:18:16;;;;;;;8.65;6.32;;;;;;;5.89;100.00;101921.28;4983641;28;20181;-47
2023/05/06 08:20:41;;;;;;;8.75;5.53;;;;;;;5.89;100.00;101936.38;4971760;28;20180;-49
2023/05/06 08:23:07;;;;;;;12.23;6.05;;;;;;;5.87;100.00;101932.84;4989246;28;20190;-49
2023/05/06 08:25:33;;;;;;;10.38;5.50;;;;;;;5.93;100.00;101935.50;4990076;28;20612;-46
2023/05/06 08:27:58;;;;;;;6.90;6.20;;;;;;;5.94;100.00;101938.16;4989410;28;20173;-48
2023/05/06 08:30:24;;;;;;;9.68;5.88;;;;;;;6.00;100.00;101941.72;4990001;28;20181;-47
2023/05/06 08:32:51;;;;;;;11.15;5.85;;;;;;;6.03;100.00;101955.88;4989923;28;20288;-46
2023/05/06 08:35:17;;;;;;;7.00;5.32;;;;;;;6.05;100.00;101950.56;4989255;28;20200;-49
2023/05/06 08:37:42;;;;;;;10.55;6.07;;;;;;;5.99;100.00;101954.09;4972083;28;20166;-46
2023/05/06 08:40:18;;;;;;;8.35;5.80;;;;;;;6.00;100.00;101947.03;4990111;28;20178;-48
2023/05/06 08:42:45;;;;;;;9.52;5.78;;;;;;;6.07;100.00;101962.97;4991109;28;20181;-46
2023/05/06 08:45:10;;;;;;;8.30;5.97;;;;;;;5.95;100.00;101963.00;4993553;28;20165;-47
2023/05/06 08:47:36;;;;;;;8.30;5.90;;;;;;;5.91;100.00;101967.41;4975012;28;20181;-49
2023/05/06 08:50:02;;;;;;;8.82;6.32;;;;;;;5.97;100.00;101971.88;4993157;28;20173;-51
2023/05/06 08:52:27;;;;;;;9.15;5.97;;;;;;;5.91;100.00;101971.84;4993271;28;20189;-46
2023/05/06 08:54:56;;;;;;;12.27;6.97;;;;;;;5.94;100.00;101971.81;4992918;28;20679;-50
2023/05/06 08:57:22;;;;;;;8.95;6.65;;;;;;;5.89;100.00;101971.84;4993106;28;20524;-52
2023/05/06 08:59:48;;;;;;;7.15;5.80;;;;;;;6.01;100.00;101978.94;4993177;28;20165;-48
2023/05/06 09:02:14;;;;;;;11.45;6.47;;;;;;;6.00;100.00;101973.66;4992811;28;20216;-47
2023/05/06 09:04:40;;;;;;;11.35;7.15;;;;;;;6.16;100.00;101981.56;4993265;28;20161;-47
2023/05/06 09:07:05;;;;;;;10.25;6.88;;;;;;;6.09;100.00;101973.63;4992793;28;20297;-49
2023/05/06 09:09:31;;;;;;;10.32;6.82;;;;;;;6.14;100.00;101979.81;4992780;28;20192;-49
2023/05/06 09:11:56;;;;;;;12.32;6.70;;;;;;;6.18;100.00;101973.59;4992568;28;20201;-46
2023/05/06 09:14:22;;;;;;;10.07;6.75;;;;;;;6.12;100.00;101977.19;4974827;28;20193;-46
2023/05/06 09:16:51;;;;;;;10.15;6.40;;;;;;;6.04;100.00;101973.63;4990136;28;20173;-46
2023/05/06 09:19:19;;;;;;;7.60;6.45;;;;;;;6.17;100.00;101983.38;4974746;28;20240;-46
2023/05/06 09:21:50;;;;;;;9.15;6.50;;;;;;;6.24;100.00;101980.72;4991910;28;20715;-45
2023/05/06 09:24:16;;;;;;;9.13;6.55;;;;;;;6.24;100.00;101988.69;4992514;28;20162;-48
2023/05/06 09:26:43;;;;;;;14.88;6.32;;;;;;;6.16;100.00;101986.91;4992069;28;20551;-51
2023/05/06 09:29:09;;;;;;;12.40;7.22;;;;;;;6.18;100.00;101987.78;4975256;28;20260;-46
2023/05/06 09:31:46;;;;;;;8.07;6.90;;;;;;;6.24;100.00;101992.22;4993028;28;20308;-47
2023/05/06 09:34:13;;;;;;;11.38;6.60;;;;;;;6.23;100.00;101985.16;4991878;28;20189;-46
2023/05/06 09:36:39;;;;;;;7.50;6.53;;;;;;;6.28;100.00;101988.69;4991087;28;20644;-47
2023/05/06 09:39:05;;;;;;;9.48;6.72;;;;;;;6.13;100.00;101996.69;4992527;28;20201;-45
2023/05/06 09:41:31;;;;;;;15.38;6.93;;;;;;;6.10;100.00;101984.28;4992162;28;20296;-44
2023/05/06 09:43:58;;;;;;;8.60;6.53;;;;;;;6.15;100.00;101992.25;4992292;28;20568;-47
2023/05/06 09:46:24;;;;;;;10.38;6.75;;;;;;;6.19;100.00;101988.69;4983530;28;20244;-46
2023/05/06 09:48:52;;;;;;;12.00;6.57;;;;;;;6.18;100.00;101989.56;4991892;28;20220;-47
2023/05/06 09:51:19;;;;;;;10.25;7.00;;;;;;;6.21;100.00;101994.91;4974099;28;20180;-45
2023/05/06 09:53:45;;;;;;;8.20;6.68;;;;;;;6.26;100.00;101982.47;4973308;28;20241;-46
2023/05/06 09:56:14;;;;;;;10.00;6.80;;;;;;;6.36;100.00;101980.66;4991943;28;20173;-49
2023/05/06 09:58:40;;;;;;;7.82;6.47;;;;;;;6.38;100.00;101989.53;4991545;28;20181;-47
2023/05/06 10:01:07;;;;;;;10.80;6.40;;;;;;;6.38;100.00;101976.22;4992014;28;20629;-47
2023/05/06 10:03:34;;;;;;;10.13;6.88;;;;;;;6.37;100.00;101982.44;4974475;28;20169;-46
2023/05/06 10:06:01;;;;;;;7.22;6.43;;;;;;;6.38;100.00;101990.44;4991580;28;20182;-44
2023/05/06 10:08:27;;;;;;;10.10;6.30;;;;;;;6.36;100.00;101996.63;4991822;28;20272;-48
2023/05/06 10:10:53;;;;;;;10.27;6.65;;;;;;;6.42;100.00;101983.31;4991734;28;20271;-44
2023/05/06 10:13:20;;;;;;;8.98;6.38;;;;;;;6.33;100.00;101992.19;4992173;28;20267;-47
2023/05/06 10:15:47;;;;;;;12.00;6.63;;;;;;;6.30;100.00;101992.22;4992025;28;20663;-50
2023/05/06 10:18:18;;;;;;;10.85;6.80;;;;;;;6.36;100.00;101996.63;4991766;28;20166;-47
2023/05/06 10:20:45;;;;;;;37.08;15.45;;;;;;;6.44;100.00;101991.31;4991525;28;20201;-49
2023/05/06 10:23:22;;;;;;;8.38;6.38;;;;;;;6.39;100.00;101996.66;4991149;28;20549;-47
2023/05/06 10:25:52;;;;;;;27.85;12.05;;;;;;;6.49;100.00;101993.03;4991285;28;20227;-48
2023/05/06 10:28:19;;;;;;;10.68;7.30;;;;;;;6.40;100.00;101991.28;4991287;28;20603;-50
2023/05/06 10:30:45;;;;;;;15.60;8.18;;;;;;;6.49;100.00;101989.50;4991174;28;20179;-46
2023/05/06 10:33:13;;;;;;;10.35;6.85;;;;;;;6.47;100.00;101991.28;4991042;28;20250;-47
2023/05/06 10:36:30;;;;;;;13.30;6.15;;;;;;;6.36;100.00;101996.63;4991417;28;20206;-46
2023/05/06 10:38:59;;;;;;;9.25;6.57;;;;;;;6.51;100.00;101990.38;4958727;28;20189;-49
2023/05/06 10:41:26;;;;;;;7.57;5.90;;;;;;;6.33;100.00;101989.53;4991277;28;20232;-46
2023/05/06 10:43:55;;;;;;;6.82;5.40;;;;;;;6.37;100.00;101990.44;4991472;28;20264;-46
2023/05/06 10:46:23;;;;;;;7.47;5.75;;;;;;;6.46;100.00;101987.75;4991459;28;20181;-45
2023/05/06 10:49:03;;;;;;;19.10;8.23;;;;;;;6.37;100.00;101990.44;4991427;28;20547;-49
2023/05/06 10:51:30;;;;;;;7.95;5.80;;;;;;;6.36;100.00;101993.97;4991216;28;20201;-49
2023/05/06 10:54:08;;;;;;;14.63;7.60;;;;;;;6.46;100.00;101990.41;4990815;28;20561;-48
2023/05/06 10:56:49;;;;;;;6.35;4.85;;;;;;;6.38;100.00;101990.44;4991288;28;20659;-47
2023/05/06 10:59:20;;;;;;;10.15;6.90;;;;;;;6.40;100.00;101993.06;4991281;28;20547;-46
2023/05/06 11:01:54;;;;;;;10.93;6.45;;;;;;;6.37;100.00;101993.97;4973225;28;20205;-47
2023/05/06 11:04:20;;;;;;;8.68;5.00;;;;;;;6.44;100.00;101989.53;4991126;28;20153;-47
2023/05/06 11:06:50;;;;;;;5.22;4.40;;;;;;;6.45;100.00;101990.41;4987949;28;20227;-48
2023/05/06 11:09:26;;;;;;;5.72;5.13;;;;;;;6.48;100.00;101985.97;4990938;28;20543;-50
2023/05/06 11:12:01;;;;;;;8.30;6.20;;;;;;;6.51;100.00;101985.94;4990815;28;20193;-50
2023/05/06 11:14:35;;;;;;;8.77;6.05;;;;;;;6.53;100.00;101985.94;4990538;28;20197;-47
2023/05/06 11:17:03;;;;;;;10.75;6.10;;;;;;;6.48;100.00;101998.41;4973411;28;20688;-45
2023/05/06 11:19:31;;;;;;;9.75;6.75;;;;;;;6.62;100.00;101993.03;4972835;28;20181;-45
2023/05/06 11:21:58;;;;;;;8.82;5.35;;;;;;;6.65;100.00;101985.00;4990491;28;20328;-48
2023/05/06 11:24:25;;;;;;;5.85;3.85;;;;;;;6.66;100.00;101989.47;4989855;28;20694;-45